Time;durP1;ratioP1;P1;durP2;ratioP2;P2;SDS_P1;SDS_P2;PMS_P1;PMS_P2;Temp;Humidity;BMP_temperature;BMP_pressure;BME280_temperature;BME280_humidity;BME280_pressure;Samples;Min_cycle;Max_cycle;Signal;HPM_P1;HPM_P2
2022/07/25 00:01:36;;;;;;;4.00;2.10;;;23.60;93.00;;;;;;5050558;28;20745;-74
2022/07/25 00:04:02;;;;;;;2.53;2.00;;;23.60;93.10;;;;;;5063068;28;20485;-73
2022/07/25 00:06:27;;;;;;;3.00;2.00;;;23.60;93.30;;;;;;5061653;28;20456;-73
2022/07/25 00:08:53;;;;;;;4.83;2.30;;;23.60;93.50;;;;;;5069836;28;20909;-73
2022/07/25 00:11:18;;;;;;;3.60;2.30;;;23.60;93.40;;;;;;5058928;28;20405;-73
2022/07/25 00:13:44;;;;;;;2.97;1.92;;;23.60;93.60;;;;;;5049062;28;20401;-73
2022/07/25 00:16:10;;;;;;;4.40;2.47;;;23.50;93.60;;;;;;5059239;28;20507;-73
2022/07/25 00:18:35;;;;;;;3.50;2.53;;;23.50;93.60;;;;;;5069529;28;20435;-73
2022/07/25 00:21:01;;;;;;;4.20;2.55;;;23.50;93.60;;;;;;5069359;28;20906;-73
2022/07/25 00:23:27;;;;;;;3.58;2.50;;;23.50;93.70;;;;;;5065289;28;20852;-74
2022/07/25 00:25:52;;;;;;;3.97;2.60;;;23.50;93.80;;;;;;5050034;28;20413;-73
2022/07/25 00:28:18;;;;;;;3.85;2.85;;;23.50;93.90;;;;;;5062430;28;20397;-74
2022/07/25 00:30:44;;;;;;;5.00;3.03;;;23.50;93.80;;;;;;5049399;28;20888;-73
2022/07/25 00:33:09;;;;;;;4.17;3.10;;;23.50;94.10;;;;;;5062897;28;20447;-74
2022/07/25 00:35:35;;;;;;;4.32;3.20;;;23.50;94.20;;;;;;5059688;28;20412;-73
2022/07/25 00:38:00;;;;;;;4.70;3.20;;;23.40;94.10;;;;;;5067447;28;20431;-73
2022/07/25 00:40:26;;;;;;;3.67;3.00;;;23.50;94.20;;;;;;5059022;28;20416;-73
2022/07/25 00:42:52;;;;;;;4.47;3.22;;;23.50;94.40;;;;;;5063186;28;20411;-73
2022/07/25 00:45:17;;;;;;;4.05;3.38;;;23.50;94.40;;;;;;5060862;28;20408;-73
2022/07/25 00:47:43;;;;;;;6.07;3.70;;;23.40;94.40;;;;;;5052400;28;20741;-73
2022/07/25 00:50:09;;;;;;;4.50;3.20;;;23.40;94.40;;;;;;5060264;28;20404;-73
2022/07/25 00:52:35;;;;;;;6.32;3.42;;;23.40;94.40;;;;;;5068329;28;21116;-73
2022/07/25 00:55:01;;;;;;;6.75;3.90;;;23.40;94.60;;;;;;5068988;28;20438;-73
2022/07/25 00:57:26;;;;;;;6.30;4.50;;;23.30;94.50;;;;;;5052187;28;20456;-73
2022/07/25 00:59:52;;;;;;;5.47;4.20;;;23.30;94.60;;;;;;5059450;28;20404;-73
2022/07/25 01:02:17;;;;;;;5.70;4.47;;;23.30;94.70;;;;;;5068577;28;20877;-73
2022/07/25 01:04:43;;;;;;;6.60;4.37;;;23.20;94.70;;;;;;5069119;28;20406;-73
2022/07/25 01:07:09;;;;;;;5.53;4.17;;;23.20;94.80;;;;;;5068309;28;20439;-73
2022/07/25 01:09:35;;;;;;;6.43;4.38;;;23.20;94.80;;;;;;5058914;28;20445;-73
2022/07/25 01:12:01;;;;;;;5.88;4.50;;;23.20;94.90;;;;;;5052241;28;20431;-73
2022/07/25 01:14:27;;;;;;;6.93;4.60;;;23.10;94.90;;;;;;5058970;28;20833;-73
2022/07/25 01:16:52;;;;;;;7.07;5.00;;;23.00;94.90;;;;;;5062126;28;20922;-73
2022/07/25 01:19:18;;;;;;;7.13;5.20;;;23.00;95.00;;;;;;5058819;28;20427;-73
2022/07/25 01:21:44;;;;;;;6.70;4.80;;;23.00;94.90;;;;;;5068580;28;20473;-74
2022/07/25 01:24:11;;;;;;;6.22;4.95;;;23.00;95.00;;;;;;5068534;28;20800;-73
2022/07/25 01:26:37;;;;;;;8.65;5.72;;;22.90;95.10;;;;;;5067948;28;20400;-73
2022/07/25 01:29:03;;;;;;;6.97;5.60;;;22.90;95.10;;;;;;5058432;28;20818;-73
2022/07/25 01:31:29;;;;;;;7.28;5.57;;;22.90;95.10;;;;;;5048847;28;20432;-73
2022/07/25 01:33:54;;;;;;;8.30;5.75;;;22.80;95.10;;;;;;5058919;28;20803;-73
2022/07/25 01:36:20;;;;;;;8.85;6.00;;;22.80;95.10;;;;;;5055293;28;20743;-73
2022/07/25 01:38:46;;;;;;;7.73;6.23;;;22.70;95.10;;;;;;5067229;28;20553;-73
2022/07/25 01:41:11;;;;;;;7.80;6.20;;;22.70;95.00;;;;;;5051257;28;20942;-73
2022/07/25 01:43:37;;;;;;;8.13;6.00;;;22.70;95.10;;;;;;5048716;28;20402;-73
2022/07/25 01:46:03;;;;;;;10.27;6.50;;;22.60;95.00;;;;;;5064997;28;20395;-73
2022/07/25 01:48:28;;;;;;;8.90;6.45;;;22.60;95.10;;;;;;5058063;28;20986;-73
2022/07/25 01:50:54;;;;;;;8.73;6.65;;;22.60;95.00;;;;;;5061393;28;20411;-74
2022/07/25 01:53:20;;;;;;;9.70;7.40;;;22.60;95.00;;;;;;5048393;28;20397;-74
2022/07/25 01:55:46;;;;;;;9.57;6.75;;;22.50;94.90;;;;;;5060808;28;20429;-73
2022/07/25 01:58:11;;;;;;;10.20;6.93;;;22.50;94.90;;;;;;5048049;28;20425;-73
2022/07/25 02:00:37;;;;;;;8.48;6.95;;;22.50;94.90;;;;;;5051126;28;20525;-73
2022/07/25 02:05:47;;;;;;;10.10;7.45;;;22.40;95.10;;;;;;5054829;28;20898;-73
2022/07/25 02:08:12;;;;;;;10.07;7.63;;;22.40;95.00;;;;;;5067946;28;20411;-73
2022/07/25 02:10:38;;;;;;;10.40;7.40;;;22.40;95.00;;;;;;5049553;28;20405;-73
2022/07/25 02:13:04;;;;;;;11.25;7.45;;;22.30;94.90;;;;;;5060240;28;20399;-73
2022/07/25 02:15:29;;;;;;;8.27;7.03;;;22.30;95.00;;;;;;5054508;28;20403;-73
2022/07/25 02:17:55;;;;;;;10.10;7.85;;;22.30;95.00;;;;;;5067188;28;20431;-73
2022/07/25 02:20:21;;;;;;;9.63;7.88;;;22.30;94.90;;;;;;5067421;28;20518;-73
2022/07/25 02:22:46;;;;;;;8.43;7.37;;;22.20;94.80;;;;;;5067874;28;20400;-73
2022/07/25 02:25:12;;;;;;;11.60;7.70;;;22.20;94.90;;;;;;5062391;28;20398;-73
2022/07/25 02:27:37;;;;;;;9.90;8.17;;;22.20;94.90;;;;;;5059701;28;20439;-73
2022/07/25 02:30:04;;;;;;;10.17;8.23;;;22.20;95.00;;;;;;5054040;28;20453;-73
2022/07/25 02:32:30;;;;;;;10.65;8.18;;;22.20;95.00;;;;;;5064653;28;20412;-73
2022/07/25 02:34:57;;;;;;;10.30;8.23;;;22.20;94.90;;;;;;5067708;28;20406;-73
2022/07/25 02:37:23;;;;;;;11.40;8.25;;;22.10;95.00;;;;;;5067480;28;20415;-73
2022/07/25 02:39:48;;;;;;;11.10;8.50;;;22.10;95.10;;;;;;5058916;28;20898;-73
2022/07/25 02:42:14;;;;;;;9.80;8.23;;;22.10;95.20;;;;;;5067476;28;20411;-73
2022/07/25 02:44:40;;;;;;;11.37;9.27;;;22.10;95.20;;;;;;5067701;28;20396;-72
2022/07/25 02:47:06;;;;;;;11.02;8.90;;;22.10;95.20;;;;;;5053860;28;20402;-73
2022/07/25 02:49:31;;;;;;;13.37;9.50;;;22.10;95.30;;;;;;5067525;28;20753;-73
2022/07/25 02:51:57;;;;;;;10.53;8.20;;;22.00;95.40;;;;;;5067387;28;20395;-73
2022/07/25 02:54:23;;;;;;;11.85;8.27;;;22.00;95.50;;;;;;5066858;28;20400;-72
2022/07/25 02:56:48;;;;;;;9.73;8.20;;;22.00;95.60;;;;;;5067381;28;20808;-73
2022/07/25 02:59:14;;;;;;;10.00;7.60;;;21.90;95.50;;;;;;5066102;28;20983;-73
2022/07/25 03:01:40;;;;;;;10.90;8.27;;;21.90;95.50;;;;;;5071399;28;20395;-73
2022/07/25 03:04:05;;;;;;;10.80;8.13;;;21.80;95.60;;;;;;5066916;28;20401;-73
2022/07/25 03:06:31;;;;;;;10.85;8.50;;;21.80;95.80;;;;;;5068330;28;20396;-73
2022/07/25 03:08:56;;;;;;;11.20;8.48;;;21.80;95.90;;;;;;5071069;28;20399;-73
2022/07/25 03:11:22;;;;;;;12.83;8.83;;;21.80;96.00;;;;;;5053533;28;20404;-73
2022/07/25 03:13:48;;;;;;;11.63;8.07;;;21.80;96.00;;;;;;5062338;28;20800;-72
2022/07/25 03:16:14;;;;;;;9.80;8.32;;;21.80;96.10;;;;;;5070407;28;20399;-73
2022/07/25 03:18:39;;;;;;;11.03;8.43;;;21.70;96.30;;;;;;5070464;28;20428;-73
2022/07/25 03:21:05;;;;;;;11.25;8.15;;;21.70;96.50;;;;;;5070712;28;20411;-73
2022/07/25 03:23:31;;;;;;;11.50;7.70;;;21.70;96.70;;;;;;5060551;28;20488;-73
2022/07/25 03:25:57;;;;;;;10.27;7.40;;;21.60;96.70;;;;;;5055397;28;20491;-73
2022/07/25 03:28:24;;;;;;;11.02;7.93;;;21.60;96.80;;;;;;5060295;28;20440;-72
2022/07/25 03:30:50;;;;;;;11.00;8.32;;;21.60;96.80;;;;;;5050986;28;20412;-73
2022/07/25 03:33:15;;;;;;;11.55;7.88;;;21.70;97.00;;;;;;5061602;28;20480;-73
2022/07/25 03:35:41;;;;;;;12.57;7.70;;;21.60;96.80;;;;;;5057841;28;20407;-73
2022/07/25 03:38:07;;;;;;;10.48;7.97;;;21.60;97.00;;;;;;5059316;28;20551;-73
2022/07/25 03:40:33;;;;;;;9.90;7.67;;;21.50;97.40;;;;;;5067666;28;20392;-73
2022/07/25 03:42:58;;;;;;;10.95;7.65;;;21.50;97.60;;;;;;5070202;28;20404;-73
2022/07/25 03:45:24;;;;;;;9.23;7.78;;;21.50;97.60;;;;;;5068886;28;20901;-73
2022/07/25 03:47:50;;;;;;;9.40;7.40;;;21.50;97.60;;;;;;5070011;28;20882;-73
2022/07/25 03:50:15;;;;;;;10.95;7.60;;;21.50;97.80;;;;;;5069332;28;20418;-71
2022/07/25 03:52:41;;;;;;;10.87;7.70;;;21.50;97.80;;;;;;5070467;28;20408;-73
2022/07/25 03:55:09;;;;;;;9.57;7.03;;;21.50;97.80;;;;;;5069194;28;20453;-73
2022/07/25 03:57:34;;;;;;;12.75;7.75;;;21.50;98.10;;;;;;5070098;28;20426;-73
2022/07/25 04:00:00;;;;;;;9.67;7.67;;;21.50;98.40;;;;;;5069823;28;20400;-72
2022/07/25 04:02:26;;;;;;;9.70;7.43;;;21.40;98.40;;;;;;5069503;28;20399;-73
2022/07/25 04:04:51;;;;;;;9.45;7.00;;;21.40;98.50;;;;;;5069359;28;20396;-73
2022/07/25 04:07:18;;;;;;;10.80;7.60;;;21.40;98.60;;;;;;5070146;28;20419;-73
2022/07/25 04:09:43;;;;;;;9.50;7.50;;;21.40;98.60;;;;;;5068932;28;20490;-73
2022/07/25 04:12:09;;;;;;;12.35;7.88;;;21.40;98.60;;;;;;5059223;28;20496;-73
2022/07/25 04:14:35;;;;;;;12.57;8.13;;;21.50;98.70;;;;;;5066672;28;20410;-73
2022/07/25 04:17:00;;;;;;;10.77;8.18;;;21.40;98.70;;;;;;5069472;28;20435;-73
2022/07/25 04:19:26;;;;;;;10.87;7.50;;;21.40;98.90;;;;;;5069149;28;20503;-73
2022/07/25 04:21:51;;;;;;;10.23;7.23;;;21.50;99.00;;;;;;5069727;28;20997;-73
2022/07/25 04:24:17;;;;;;;10.73;7.75;;;21.50;99.30;;;;;;5069035;28;20410;-73
2022/07/25 04:26:43;;;;;;;11.63;7.40;;;21.50;99.40;;;;;;5069340;28;20407;-73
2022/07/25 04:29:08;;;;;;;12.00;7.90;;;21.50;99.50;;;;;;5069559;28;20487;-73
2022/07/25 04:31:34;;;;;;;11.80;7.15;;;21.50;99.50;;;;;;5059683;28;21140;-73
2022/07/25 04:34:00;;;;;;;13.77;7.93;;;21.40;99.70;;;;;;5050061;28;20794;-73
2022/07/25 04:36:25;;;;;;;9.90;7.30;;;21.40;99.80;;;;;;5049663;28;21007;-73
2022/07/25 04:38:52;;;;;;;10.68;7.68;;;21.40;99.90;;;;;;5052618;28;20431;-73
2022/07/25 04:41:17;;;;;;;11.48;7.20;;;21.40;99.90;;;;;;5059883;28;20408;-73
2022/07/25 04:43:43;;;;;;;9.23;7.40;;;21.40;99.90;;;;;;5062692;28;20491;-73
2022/07/25 04:46:09;;;;;;;10.05;6.53;;;21.40;99.90;;;;;;5049353;28;20403;-73
2022/07/25 04:48:34;;;;;;;10.40;7.00;;;21.40;99.90;;;;;;5062531;28;20392;-73
2022/07/25 04:51:00;;;;;;;12.68;8.48;;;21.40;99.90;;;;;;5049813;28;20398;-73
2022/07/25 04:53:26;;;;;;;14.23;9.68;;;21.40;99.90;;;;;;5065265;28;20408;-73
2022/07/25 04:55:51;;;;;;;13.67;8.97;;;21.50;99.90;;;;;;5060049;28;20397;-73
2022/07/25 04:58:17;;;;;;;13.00;9.98;;;21.50;99.90;;;;;;5063135;28;20423;-73
2022/07/25 05:00:43;;;;;;;12.60;9.83;;;21.60;99.90;;;;;;5050187;28;20455;-72
2022/07/25 05:03:09;;;;;;;14.68;10.00;;;21.70;99.70;;;;;;5062342;28;20920;-73
2022/07/25 05:05:34;;;;;;;13.43;10.30;;;21.80;99.40;;;;;;5059288;28;20399;-73
2022/07/25 05:08:00;;;;;;;14.73;10.40;;;21.90;99.40;;;;;;5065986;28;21328;-73
2022/07/25 05:10:27;;;;;;;14.37;11.00;;;21.90;99.50;;;;;;5059576;28;20403;-72
2022/07/25 05:12:53;;;;;;;13.57;10.93;;;22.00;99.50;;;;;;5052994;28;20417;-73
2022/07/25 05:15:19;;;;;;;14.30;11.25;;;22.10;99.20;;;;;;5059086;28;20396;-73
2022/07/25 05:17:45;;;;;;;12.95;10.68;;;22.10;99.10;;;;;;5067991;28;20988;-73
2022/07/25 05:20:12;;;;;;;14.98;10.45;;;22.10;98.90;;;;;;5068758;28;20457;-73
2022/07/25 05:22:37;;;;;;;13.00;9.95;;;22.10;98.90;;;;;;5065120;28;21402;-73
2022/07/25 05:25:06;;;;;;;12.52;10.23;;;22.20;98.90;;;;;;5058556;28;20400;-73
2022/07/25 05:27:32;;;;;;;15.27;10.20;;;22.20;99.00;;;;;;5052564;28;20555;-73
2022/07/25 05:29:57;;;;;;;12.87;9.70;;;22.20;98.90;;;;;;5058816;28;20899;-73
2022/07/25 05:32:23;;;;;;;14.13;10.47;;;22.30;98.80;;;;;;5067514;28;20396;-73
2022/07/25 05:34:49;;;;;;;14.90;10.63;;;22.30;98.80;;;;;;5068547;28;20406;-73
2022/07/25 05:37:15;;;;;;;14.47;10.40;;;22.40;98.70;;;;;;5067669;28;20404;-73
2022/07/25 05:39:40;;;;;;;15.02;10.48;;;22.40;98.70;;;;;;5068442;28;20392;-72
2022/07/25 05:42:06;;;;;;;12.82;10.00;;;22.50;98.60;;;;;;5068188;28;20439;-73
2022/07/25 05:44:32;;;;;;;15.25;10.45;;;22.60;98.60;;;;;;5058885;28;20527;-73
2022/07/25 05:46:58;;;;;;;14.00;9.98;;;22.60;98.40;;;;;;5063962;28;20411;-73
2022/07/25 05:49:24;;;;;;;15.70;10.57;;;22.70;98.20;;;;;;5059046;28;20768;-73
2022/07/25 05:51:50;;;;;;;15.00;10.27;;;22.80;98.20;;;;;;5053215;28;20423;-74
2022/07/25 05:54:15;;;;;;;16.63;10.30;;;22.80;98.00;;;;;;5066630;28;20403;-73
2022/07/25 05:56:41;;;;;;;16.35;10.00;;;22.80;98.10;;;;;;5067680;28;20453;-73
2022/07/25 05:59:06;;;;;;;14.60;9.82;;;22.80;97.90;;;;;;5067404;28;20510;-73
2022/07/25 06:01:32;;;;;;;14.00;10.13;;;22.80;98.10;;;;;;5058194;28;20433;-73
2022/07/25 06:03:58;;;;;;;14.95;10.25;;;22.90;98.10;;;;;;5058183;28;20446;-72
2022/07/25 06:06:24;;;;;;;14.45;9.57;;;22.90;98.10;;;;;;5054866;28;20580;-72
2022/07/25 06:08:49;;;;;;;13.63;9.93;;;22.90;97.90;;;;;;5048764;28;20859;-72
2022/07/25 06:11:15;;;;;;;11.87;9.10;;;23.00;98.00;;;;;;5051483;28;20424;-71
2022/07/25 06:13:41;;;;;;;12.90;9.57;;;23.00;98.00;;;;;;5061039;28;20428;-72
2022/07/25 06:16:07;;;;;;;13.00;9.50;;;23.10;97.90;;;;;;5065317;28;20399;-73
2022/07/25 06:18:33;;;;;;;12.80;9.82;;;23.10;98.00;;;;;;5048567;28;20479;-72
2022/07/25 06:20:59;;;;;;;12.33;9.17;;;23.20;97.90;;;;;;5060681;28;20399;-71
2022/07/25 06:23:25;;;;;;;12.13;8.50;;;23.20;98.00;;;;;;5057178;28;20739;-72
2022/07/25 06:25:50;;;;;;;10.95;9.00;;;23.30;97.80;;;;;;5055086;28;20427;-72
2022/07/25 06:28:16;;;;;;;11.48;8.90;;;23.40;97.50;;;;;;5067333;28;20986;-72
2022/07/25 06:30:43;;;;;;;13.03;8.73;;;23.40;97.30;;;;;;5064865;28;20460;-72
2022/07/25 06:33:09;;;;;;;12.68;10.02;;;23.40;97.20;;;;;;5054739;28;20429;-72
2022/07/25 06:35:35;;;;;;;11.80;9.00;;;23.40;97.00;;;;;;5057650;28;20456;-72
2022/07/25 06:38:00;;;;;;;11.50;9.50;;;23.40;97.00;;;;;;5071476;28;20431;-71
2022/07/25 06:40:26;;;;;;;11.60;9.32;;;23.50;97.00;;;;;;5070486;28;20502;-72
2022/07/25 06:42:52;;;;;;;11.80;9.70;;;23.50;97.30;;;;;;5071853;28;20399;-72
2022/07/25 06:45:18;;;;;;;14.33;9.30;;;23.50;97.10;;;;;;5058965;28;20420;-72
2022/07/25 06:47:44;;;;;;;12.25;9.18;;;23.60;97.10;;;;;;5064042;28;20972;-73
2022/07/25 06:50:12;;;;;;;11.55;9.48;;;23.50;97.10;;;;;;5063441;28;20408;-72
2022/07/25 06:52:38;;;;;;;12.77;10.20;;;23.50;97.20;;;;;;5068619;28;20480;-72
2022/07/25 06:55:06;;;;;;;12.27;10.50;;;23.50;97.20;;;;;;5062401;28;20439;-73
2022/07/25 06:57:31;;;;;;;11.85;8.90;;;23.60;97.50;;;;;;5064352;28;20403;-73
2022/07/25 06:59:57;;;;;;;10.07;8.27;;;23.60;97.30;;;;;;5069056;28;20474;-73
2022/07/25 07:02:23;;;;;;;11.10;7.90;;;23.70;97.30;;;;;;5062779;28;20491;-73
2022/07/25 07:04:49;;;;;;;9.73;7.30;;;23.80;97.10;;;;;;5069937;28;20446;-74
2022/07/25 07:07:15;;;;;;;10.73;8.25;;;23.90;97.40;;;;;;5067224;28;20405;-72
2022/07/25 07:09:41;;;;;;;9.77;7.75;;;24.00;96.50;;;;;;5068013;28;20525;-73
2022/07/25 07:12:08;;;;;;;10.38;7.45;;;24.10;96.50;;;;;;5066946;28;20484;-74
2022/07/25 07:14:33;;;;;;;10.52;8.00;;;24.30;96.50;;;;;;5061028;28;20403;-74
2022/07/25 07:16:59;;;;;;;9.90;7.60;;;24.40;95.80;;;;;;5063653;28;20407;-72
2022/07/25 07:19:25;;;;;;;9.20;7.57;;;24.60;95.70;;;;;;5063062;28;20428;-72
2022/07/25 07:21:51;;;;;;;9.23;7.57;;;24.80;95.20;;;;;;5063386;28;20483;-72
2022/07/25 07:24:17;;;;;;;10.15;7.60;;;24.90;95.20;;;;;;5070680;28;20442;-72
2022/07/25 07:26:43;;;;;;;10.05;7.38;;;24.90;94.60;;;;;;5070534;28;20575;-72
2022/07/25 07:29:08;;;;;;;9.73;7.55;;;25.00;94.60;;;;;;5063548;28;20412;-72
2022/07/25 07:31:34;;;;;;;8.23;6.90;;;25.00;94.40;;;;;;5063647;28;20396;-72
2022/07/25 07:34:01;;;;;;;8.77;7.35;;;25.00;94.70;;;;;;5063603;28;20400;-72
2022/07/25 07:36:27;;;;;;;9.47;7.27;;;25.00;94.60;;;;;;5070640;28;20913;-72
2022/07/25 07:38:53;;;;;;;11.10;6.78;;;25.10;94.50;;;;;;5052334;28;20895;-72
2022/07/25 07:41:19;;;;;;;11.23;7.65;;;25.20;94.70;;;;;;5070676;28;20404;-72
2022/07/25 07:43:45;;;;;;;10.35;7.78;;;25.20;94.70;;;;;;5067223;28;20409;-73
2022/07/25 07:46:10;;;;;;;10.57;7.82;;;25.30;94.50;;;;;;5059193;28;20400;-73
2022/07/25 07:48:36;;;;;;;11.27;8.07;;;25.40;94.30;;;;;;5054282;28;20412;-72
2022/07/25 07:51:03;;;;;;;11.30;7.70;;;25.40;94.10;;;;;;5060145;28;20406;-73
2022/07/25 07:56:14;;;;;;;10.85;8.00;;;25.40;93.90;;;;;;5061902;28;20404;-72
2022/07/25 07:58:39;;;;;;;9.38;6.75;;;25.40;94.00;;;;;;5064686;28;20516;-72
2022/07/25 08:01:05;;;;;;;9.53;7.77;;;25.40;94.20;;;;;;5050560;28;20547;-72
2022/07/25 08:03:31;;;;;;;10.30;7.70;;;25.50;94.10;;;;;;5068652;28;20404;-73
2022/07/25 08:05:57;;;;;;;9.63;7.07;;;25.60;93.40;;;;;;5069946;28;20411;-71
2022/07/25 08:08:22;;;;;;;8.60;7.30;;;25.60;93.50;;;;;;5069676;28;20392;-72
2022/07/25 08:10:48;;;;;;;10.85;7.00;;;25.70;92.90;;;;;;5070521;28;20491;-73
2022/07/25 08:13:23;;;;;;;9.33;6.67;;;25.80;93.00;;;;;;5069555;28;20407;-73
2022/07/25 08:15:56;;;;;;;8.50;6.03;;;25.90;92.80;;;;;;5070236;28;20399;-73
2022/07/25 08:18:23;;;;;;;6.72;4.97;;;26.00;92.30;;;;;;5057543;28;20432;-73
2022/07/25 08:20:49;;;;;;;6.82;5.03;;;26.00;91.90;;;;;;5068889;28;20407;-73
2022/07/25 08:23:16;;;;;;;6.40;4.57;;;26.00;92.00;;;;;;5069118;28;20491;-73
2022/07/25 08:25:42;;;;;;;6.25;4.72;;;26.00;91.70;;;;;;5068689;28;20399;-72
2022/07/25 08:28:08;;;;;;;7.53;4.57;;;26.00;91.00;;;;;;5069126;28;20434;-73
2022/07/25 08:30:35;;;;;;;6.60;4.28;;;25.90;91.00;;;;;;5068478;28;20751;-73
2022/07/25 08:33:03;;;;;;;7.27;4.20;;;25.90;90.60;;;;;;5057653;28;20404;-73
2022/07/25 08:35:30;;;;;;;6.10;4.60;;;25.80;90.80;;;;;;5068543;28;20407;-73
2022/07/25 08:37:56;;;;;;;5.90;4.30;;;25.80;90.70;;;;;;5069549;28;20434;-73
2022/07/25 08:40:26;;;;;;;6.90;4.30;;;25.70;90.00;;;;;;5065911;28;20404;-73
2022/07/25 08:42:53;;;;;;;6.03;3.97;;;25.60;90.10;;;;;;5057583;28;20466;-72
2022/07/25 08:45:20;;;;;;;6.72;4.57;;;25.50;90.40;;;;;;5057637;28;20837;-72
2022/07/25 08:47:48;;;;;;;5.55;4.10;;;25.60;90.60;;;;;;5066870;28;20975;-73
2022/07/25 08:50:19;;;;;;;6.05;3.90;;;25.70;91.10;;;;;;5061760;28;20427;-72
2022/07/25 08:52:46;;;;;;;5.15;3.75;;;25.80;91.40;;;;;;5066763;28;20901;-73
2022/07/25 08:55:18;;;;;;;6.33;3.60;;;25.90;91.40;;;;;;5061362;28;20833;-73
2022/07/25 08:57:46;;;;;;;6.97;3.70;;;25.90;91.30;;;;;;5055183;28;20482;-72
2022/07/25 09:00:15;;;;;;;12.70;4.90;;;25.90;91.10;;;;;;5062948;28;20415;-73
2022/07/25 09:02:41;;;;;;;9.32;4.50;;;25.80;90.90;;;;;;5066833;28;20905;-73
2022/07/25 09:05:08;;;;;;;7.63;4.27;;;25.70;90.70;;;;;;5063273;28;20397;-73
2022/07/25 09:07:39;;;;;;;5.85;3.00;;;25.60;90.90;;;;;;5060988;28;20426;-72
2022/07/25 09:10:19;;;;;;;4.22;3.00;;;25.40;90.60;;;;;;5067246;28;20408;-73
2022/07/25 09:12:55;;;;;;;7.97;3.60;;;25.30;90.80;;;;;;5062320;28;20435;-73
2022/07/25 09:15:31;;;;;;;6.85;3.70;;;25.20;90.80;;;;;;5056844;28;21322;-73
2022/07/25 09:18:00;;;;;;;8.27;3.60;;;25.10;90.50;;;;;;5067964;28;20427;-73
2022/07/25 09:20:48;;;;;;;5.80;3.50;;;25.10;90.80;;;;;;5064984;28;20996;-72
2022/07/25 09:23:36;;;;;;;4.60;2.88;;;25.10;91.10;;;;;;5067799;28;20841;-73
2022/07/25 09:26:13;;;;;;;5.78;3.42;;;25.10;91.90;;;;;;5065510;28;20739;-73
2022/07/25 09:28:47;;;;;;;5.53;3.42;;;25.10;91.60;;;;;;5059421;28;20428;-73
2022/07/25 09:31:15;;;;;;;5.45;3.80;;;25.00;91.50;;;;;;5060202;28;20400;-72
2022/07/25 09:33:46;;;;;;;6.47;3.67;;;25.00;91.30;;;;;;5068175;28;20407;-73
2022/07/25 09:36:12;;;;;;;6.32;3.78;;;24.90;91.20;;;;;;5068439;28;20474;-73
2022/07/25 09:38:38;;;;;;;8.63;4.27;;;24.90;91.40;;;;;;5063262;28;20790;-73
2022/07/25 09:41:03;;;;;;;7.28;4.55;;;24.90;91.50;;;;;;5060853;28;20460;-72
2022/07/25 09:43:37;;;;;;;6.30;4.20;;;25.10;91.40;;;;;;5049260;28;20459;-73
2022/07/25 09:46:03;;;;;;;7.57;4.30;;;25.30;91.80;;;;;;5059567;28;20413;-72
2022/07/25 09:48:29;;;;;;;5.90;3.60;;;25.60;91.70;;;;;;5049120;28;20406;-72
2022/07/25 09:50:55;;;;;;;4.85;3.10;;;25.70;91.20;;;;;;5056932;28;20956;-73
2022/07/25 09:53:21;;;;;;;4.47;3.13;;;25.80;91.30;;;;;;5067735;28;20400;-73
2022/07/25 09:55:46;;;;;;;4.55;2.78;;;25.90;91.10;;;;;;5059678;28;20402;-73
2022/07/25 09:58:12;;;;;;;6.20;2.92;;;25.90;90.80;;;;;;5063821;28;20436;-73
2022/07/25 10:00:41;;;;;;;6.43;2.95;;;26.00;90.90;;;;;;5068037;28;20404;-73
2022/07/25 10:03:17;;;;;;;3.60;2.58;;;26.20;91.00;;;;;;5067991;28;20453;-74
2022/07/25 10:06:36;;;;;;;4.63;3.05;;;26.50;91.10;;;;;;5061967;28;20774;-73
2022/07/25 10:09:01;;;;;;;4.28;3.13;;;26.80;90.50;;;;;;5053108;28;20943;-73
2022/07/25 10:11:29;;;;;;;3.63;2.30;;;27.20;90.50;;;;;;5066042;28;20443;-73
2022/07/25 10:13:55;;;;;;;4.03;2.25;;;27.60;90.30;;;;;;5069378;28;20052;-73
2022/07/25 10:16:26;;;;;;;4.18;2.17;;;28.00;89.30;;;;;;5058512;28;20553;-73
2022/07/25 10:18:56;;;;;;;4.30;2.40;;;28.10;87.40;;;;;;5061100;28;20486;-73
2022/07/25 10:21:24;;;;;;;3.70;2.10;;;28.00;87.60;;;;;;5058882;28;20448;-73
2022/07/25 10:23:57;;;;;;;3.80;2.25;;;28.20;87.90;;;;;;5054843;28;20436;-73
2022/07/25 10:26:24;;;;;;;5.35;1.85;;;28.30;85.70;;;;;;5056619;28;20093;-73
2022/07/25 10:28:52;;;;;;;2.63;1.40;;;28.40;84.90;;;;;;5062846;28;20048;-73
2022/07/25 10:31:32;;;;;;;4.43;1.45;;;28.70;84.70;;;;;;5056115;28;20520;-73
2022/07/25 10:34:31;;;;;;;1.83;0.90;;;29.30;84.50;;;;;;5051878;28;20116;-73
2022/07/25 10:37:07;;;;;;;;;;;29.50;79.90;;;;;;5052181;28;20106;-73
2022/07/25 10:39:37;;;;;;;;;;;29.40;79.80;;;;;;5052070;28;19928;-73
2022/07/25 10:42:03;;;;;;;;;;;29.00;79.10;;;;;;5053243;28;20015;-73
2022/07/25 10:44:39;;;;;;;;;;;28.70;79.50;;;;;;5050073;28;20010;-73
2022/07/25 10:47:05;;;;;;;;;;;28.40;78.60;;;;;;5049502;28;20039;-73
2022/07/25 10:49:34;;;;;;;;;;;28.00;78.70;;;;;;5047878;28;20009;-74
2022/07/25 10:52:02;;;;;;;;;;;27.70;79.90;;;;;;5055143;28;19920;-74
2022/07/25 10:54:35;;;;;;;;;;;27.30;79.80;;;;;;5053703;28;19920;-73
2022/07/25 10:57:00;;;;;;;;;;;26.90;80.80;;;;;;5054408;28;19924;-73
2022/07/25 10:59:29;;;;;;;;;;;26.60;81.70;;;;;;5047837;28;20322;-73
2022/07/25 11:01:55;;;;;;;;;;;26.50;83.00;;;;;;5056990;28;20298;-73
2022/07/25 11:04:21;;;;;;;;;;;26.50;83.50;;;;;;5051002;28;20016;-76
2022/07/25 11:06:46;;;;;;;;;;;26.60;83.10;;;;;;5066512;28;20014;-73
2022/07/25 11:09:18;;;;;;;;;;;26.50;83.00;;;;;;5060697;28;20451;-72
2022/07/25 11:11:47;;;;;;;;;;;26.30;83.20;;;;;;5053473;28;19943;-73
2022/07/25 11:14:19;;;;;;;;;;;26.10;83.70;;;;;;5049316;28;19924;-72
2022/07/25 11:16:46;;;;;;;;;;;25.90;84.90;;;;;;5049232;28;19921;-72
2022/07/25 11:19:15;;;;;;;;;;;25.60;85.90;;;;;;5050514;28;20277;-72
2022/07/25 11:21:44;;;;;;;;;;;25.30;88.50;;;;;;5057986;28;19921;-72
2022/07/25 11:24:09;;;;;;;;;;;25.00;89.40;;;;;;5061586;28;19927;-72
2022/07/25 11:26:43;;;;;;;;;;;25.00;91.00;;;;;;5071228;28;19920;-73
2022/07/25 11:29:16;;;;;;;;;;;25.10;90.90;;;;;;5066716;28;20405;-73
2022/07/25 11:31:42;;;;;;;;;;;25.30;91.00;;;;;;5072160;28;20366;-73
2022/07/25 11:34:07;;;;;;;;;;;25.50;90.80;;;;;;5072504;28;19927;-72
2022/07/25 11:36:33;;;;;;;;;;;25.70;91.00;;;;;;5071602;28;19920;-72
2022/07/25 11:38:59;;;;;;;5.35;1.63;;;26.00;91.00;;;;;;5071580;28;19920;-73
2022/07/25 11:41:29;;;;;;;6.22;1.88;;;26.50;90.90;;;;;;5070347;28;20533;-73
2022/07/25 11:43:55;;;;;;;;;;;27.10;90.20;;;;;;5072314;28;20040;-73
2022/07/25 11:46:20;;;;;;;;;;;27.20;89.70;;;;;;5061379;28;19963;-73
2022/07/25 11:48:46;;;;;;;;;;;27.10;88.80;;;;;;5070156;28;19960;-73
2022/07/25 11:51:12;;;;;;;;;;;26.90;89.00;;;;;;5061543;28;19932;-73
2022/07/25 11:53:39;;;;;;;;;;;26.60;89.50;;;;;;5068586;28;20441;-73
2022/07/25 11:56:15;;;;;;;;;;;26.50;90.00;;;;;;5071619;28;20393;-73
2022/07/25 11:58:41;;;;;;;;;;;26.30;90.10;;;;;;5064662;28;20633;-73
2022/07/25 12:01:14;;;;;;;;;;;26.20;90.00;;;;;;5055070;28;19966;-73
2022/07/25 12:03:40;;;;;;;;;;;26.20;90.10;;;;;;5066000;28;19927;-73
2022/07/25 12:06:06;;;;;;;;;;;26.20;90.10;;;;;;5067769;28;19920;-73
2022/07/25 12:08:35;;;;;;;;;;;26.30;90.20;;;;;;5070305;28;19966;-73
2022/07/25 12:11:01;;;;;;;;;;;26.40;89.80;;;;;;5069290;28;19924;-73
2022/07/25 12:13:28;;;;;;;;;;;26.40;89.10;;;;;;5069166;28;20328;-73
2022/07/25 12:15:55;;;;;;;;;;;26.20;88.90;;;;;;5070268;28;19921;-73
2022/07/25 12:18:20;;;;;;;;;;;26.20;88.40;;;;;;5060855;28;19958;-73
2022/07/25 12:20:46;;;;;;;;;;;26.10;88.20;;;;;;5070975;28;19967;-73
2022/07/25 12:23:12;;;;;;;;;;;26.00;88.20;;;;;;5065632;28;19927;-72
2022/07/25 12:25:39;;;;;;;;;;;25.80;88.40;;;;;;5070484;28;19931;-72
2022/07/25 12:28:05;;;;;;;;;;;25.60;89.40;;;;;;5060636;28;19920;-73
2022/07/25 12:30:30;;;;;;;;;;;25.40;90.00;;;;;;5067913;28;19921;-73
2022/07/25 12:32:57;;;;;;;;;;;25.20;90.20;;;;;;5068370;28;19939;-73
2022/07/25 12:35:22;;;;;;;;;;;25.00;90.50;;;;;;5069107;28;19973;-73
2022/07/25 12:37:48;;;;;;;;;;;24.80;90.60;;;;;;5065188;28;20019;-73
2022/07/25 12:40:15;;;;;;;;;;;24.60;90.70;;;;;;5070903;28;19927;-73
2022/07/25 12:42:41;;;;;;;;;;;24.60;90.60;;;;;;5060534;28;19925;-73
2022/07/25 12:45:08;;;;;;;;;;;24.80;91.00;;;;;;5052487;28;19925;-73
2022/07/25 12:47:34;;;;;;;;;;;25.10;90.80;;;;;;5064146;28;19921;-72
2022/07/25 12:49:59;;;;;;;;;;;25.30;90.50;;;;;;5057760;28;19927;-73
2022/07/25 12:52:25;;;;;;;;;;;25.50;90.20;;;;;;5063783;28;19921;-73
2022/07/25 12:54:50;;;;;;;;;;;25.60;89.20;;;;;;5056216;28;19920;-73
2022/07/25 12:57:16;;;;;;;;;;;25.80;88.80;;;;;;5069020;28;19956;-73
2022/07/25 12:59:42;;;;;;;;;;;25.70;88.00;;;;;;5057561;28;20027;-73
2022/07/25 13:02:08;;;;;;;;;;;25.70;88.50;;;;;;5060186;28;19920;-73